sensor_id;sensor_type;location;lat;lon;timestamp;pressure;altitude;pressure_sealevel;temperature;humidity
73518;BME280;61766;60.318;25.044;2023-08-21T00:01:19;101726.25;;;16.50;39.62
73518;BME280;61766;60.318;25.044;2023-08-21T00:03:45;101717.74;;;16.10;39.55
73518;BME280;61766;60.318;25.044;2023-08-21T00:06:10;101717.52;;;16.36;39.54
73518;BME280;61766;60.318;25.044;2023-08-21T00:08:36;101718.58;;;16.60;39.55
73518;BME280;61766;60.318;25.044;2023-08-21T00:11:02;101716.76;;;16.44;40.28
73518;BME280;61766;60.318;25.044;2023-08-21T00:13:28;101713.56;;;16.48;40.36
73518;BME280;61766;60.318;25.044;2023-08-21T00:15:54;101713.67;;;16.45;40.45
73518;BME280;61766;60.318;25.044;2023-08-21T00:18:20;101716.17;;;16.35;40.86
73518;BME280;61766;60.318;25.044;2023-08-21T00:20:45;101714.48;;;16.37;40.72
73518;BME280;61766;60.318;25.044;2023-08-21T00:23:11;101715.83;;;16.38;41.00
73518;BME280;61766;60.318;25.044;2023-08-21T00:25:37;101715.51;;;16.12;41.21
73518;BME280;61766;60.318;25.044;2023-08-21T00:28:03;101717.56;;;16.17;41.05
73518;BME280;61766;60.318;25.044;2023-08-21T00:30:29;101720.14;;;16.27;41.83
73518;BME280;61766;60.318;25.044;2023-08-21T00:32:55;101717.68;;;16.13;42.51
73518;BME280;61766;60.318;25.044;2023-08-21T00:35:20;101715.89;;;15.99;41.90
73518;BME280;61766;60.318;25.044;2023-08-21T00:37:46;101713.47;;;16.14;41.61
73518;BME280;61766;60.318;25.044;2023-08-21T00:40:13;101711.18;;;16.53;41.15
73518;BME280;61766;60.318;25.044;2023-08-21T00:42:38;101710.36;;;16.46;40.86
73518;BME280;61766;60.318;25.044;2023-08-21T00:45:04;101707.16;;;16.27;40.89
73518;BME280;61766;60.318;25.044;2023-08-21T00:47:30;101708.09;;;16.70;41.38
73518;BME280;61766;60.318;25.044;2023-08-21T00:49:55;101705.71;;;16.31;41.19
73518;BME280;61766;60.318;25.044;2023-08-21T00:52:21;101701.42;;;16.39;40.97
73518;BME280;61766;60.318;25.044;2023-08-21T00:54:47;101702.41;;;16.72;40.79
73518;BME280;61766;60.318;25.044;2023-08-21T00:57:14;101700.60;;;16.57;40.72
73518;BME280;61766;60.318;25.044;2023-08-21T00:59:39;101701.47;;;16.64;40.37
73518;BME280;61766;60.318;25.044;2023-08-21T01:02:05;101703.61;;;16.94;40.33
73518;BME280;61766;60.318;25.044;2023-08-21T01:04:30;101700.80;;;16.75;40.13
73518;BME280;61766;60.318;25.044;2023-08-21T01:06:56;101697.43;;;16.80;40.07
73518;BME280;61766;60.318;25.044;2023-08-21T01:09:28;101696.91;;;16.80;40.15
73518;BME280;61766;60.318;25.044;2023-08-21T01:11:54;101699.80;;;16.79;40.22
73518;BME280;61766;60.318;25.044;2023-08-21T01:14:21;101697.71;;;16.84;40.15
73518;BME280;61766;60.318;25.044;2023-08-21T01:16:40;101696.21;;;16.81;40.25
73518;BME280;61766;60.318;25.044;2023-08-21T01:19:08;101690.54;;;16.76;40.42
73518;BME280;61766;60.318;25.044;2023-08-21T01:21:31;101688.12;;;16.70;40.71
73518;BME280;61766;60.318;25.044;2023-08-21T01:23:57;101688.92;;;16.74;40.77
73518;BME280;61766;60.318;25.044;2023-08-21T01:26:23;101691.42;;;16.72;40.80
73518;BME280;61766;60.318;25.044;2023-08-21T01:28:49;101691.60;;;16.63;41.16
73518;BME280;61766;60.318;25.044;2023-08-21T01:31:20;101687.75;;;16.61;41.24
73518;BME280;61766;60.318;25.044;2023-08-21T01:33:45;101689.89;;;16.77;41.00
73518;BME280;61766;60.318;25.044;2023-08-21T01:36:06;101689.24;;;16.62;41.52
73518;BME280;61766;60.318;25.044;2023-08-21T01:38:33;101686.88;;;16.82;41.25
73518;BME280;61766;60.318;25.044;2023-08-21T01:40:58;101681.78;;;16.93;40.79
73518;BME280;61766;60.318;25.044;2023-08-21T01:43:24;101679.57;;;16.98;40.89
73518;BME280;61766;60.318;25.044;2023-08-21T01:45:49;101677.14;;;16.99;41.18
73518;BME280;61766;60.318;25.044;2023-08-21T01:48:15;101675.32;;;16.88;41.13
73518;BME280;61766;60.318;25.044;2023-08-21T01:50:41;101672.39;;;17.19;41.02
73518;BME280;61766;60.318;25.044;2023-08-21T01:53:07;101671.98;;;17.04;41.02
73518;BME280;61766;60.318;25.044;2023-08-21T01:55:33;101668.75;;;17.01;41.02
73518;BME280;61766;60.318;25.044;2023-08-21T01:57:58;101667.84;;;17.23;41.13
73518;BME280;61766;60.318;25.044;2023-08-21T02:00:24;101662.34;;;17.08;40.87
73518;BME280;61766;60.318;25.044;2023-08-21T02:02:50;101661.14;;;16.86;41.15
73518;BME280;61766;60.318;25.044;2023-08-21T02:05:16;101660.41;;;17.26;40.93
73518;BME280;61766;60.318;25.044;2023-08-21T02:07:42;101657.45;;;17.06;40.86
73518;BME280;61766;60.318;25.044;2023-08-21T02:10:08;101654.23;;;17.02;41.43
73518;BME280;61766;60.318;25.044;2023-08-21T02:12:33;101650.28;;;17.12;41.20
73518;BME280;61766;60.318;25.044;2023-08-21T02:14:59;101646.73;;;17.36;40.92
73518;BME280;61766;60.318;25.044;2023-08-21T02:17:25;101640.34;;;17.47;40.85
73518;BME280;61766;60.318;25.044;2023-08-21T02:19:51;101637.27;;;17.29;40.73
73518;BME280;61766;60.318;25.044;2023-08-21T02:22:16;101638.99;;;17.58;41.01
73518;BME280;61766;60.318;25.044;2023-08-21T02:24:42;101639.37;;;17.36;41.63
73518;BME280;61766;60.318;25.044;2023-08-21T02:27:08;101637.90;;;17.25;42.11
73518;BME280;61766;60.318;25.044;2023-08-21T02:29:33;101637.32;;;17.29;41.71
73518;BME280;61766;60.318;25.044;2023-08-21T02:31:59;101639.81;;;17.37;41.69
73518;BME280;61766;60.318;25.044;2023-08-21T02:34:25;101636.58;;;17.66;41.58
73518;BME280;61766;60.318;25.044;2023-08-21T02:36:51;101636.26;;;17.73;41.38
73518;BME280;61766;60.318;25.044;2023-08-21T02:39:17;101632.09;;;17.73;41.39
73518;BME280;61766;60.318;25.044;2023-08-21T02:41:43;101632.00;;;17.50;41.51
73518;BME280;61766;60.318;25.044;2023-08-21T02:44:08;101629.59;;;17.58;41.28
73518;BME280;61766;60.318;25.044;2023-08-21T02:46:34;101629.03;;;17.64;41.10
73518;BME280;61766;60.318;25.044;2023-08-21T02:49:00;101625.00;;;17.47;41.26
73518;BME280;61766;60.318;25.044;2023-08-21T02:51:26;101619.00;;;17.65;39.91
73518;BME280;61766;60.318;25.044;2023-08-21T02:53:52;101616.91;;;17.67;41.08
73518;BME280;61766;60.318;25.044;2023-08-21T02:56:18;101614.92;;;17.55;41.62
73518;BME280;61766;60.318;25.044;2023-08-21T02:58:43;101612.25;;;17.64;41.55
73518;BME280;61766;60.318;25.044;2023-08-21T03:01:09;101612.04;;;17.71;41.13
73518;BME280;61766;60.318;25.044;2023-08-21T03:03:35;101612.47;;;17.91;41.05
73518;BME280;61766;60.318;25.044;2023-08-21T03:06:01;101609.40;;;17.71;41.70
73518;BME280;61766;60.318;25.044;2023-08-21T03:08:27;101606.40;;;17.71;40.77
73518;BME280;61766;60.318;25.044;2023-08-21T03:10:52;101608.62;;;17.54;42.21
73518;BME280;61766;60.318;25.044;2023-08-21T03:13:17;101604.90;;;17.43;41.71
73518;BME280;61766;60.318;25.044;2023-08-21T03:15:43;101603.02;;;17.64;41.83
73518;BME280;61766;60.318;25.044;2023-08-21T03:18:09;101598.80;;;17.46;42.48
73518;BME280;61766;60.318;25.044;2023-08-21T03:20:35;101597.09;;;17.17;42.49
73518;BME280;61766;60.318;25.044;2023-08-21T03:23:00;101592.89;;;17.31;42.71
73518;BME280;61766;60.318;25.044;2023-08-21T03:25:27;101592.59;;;17.27;42.69
73518;BME280;61766;60.318;25.044;2023-08-21T03:27:52;101592.67;;;17.23;41.78
73518;BME280;61766;60.318;25.044;2023-08-21T03:30:19;101589.34;;;17.48;42.16
73518;BME280;61766;60.318;25.044;2023-08-21T03:32:44;101586.89;;;17.44;42.45
73518;BME280;61766;60.318;25.044;2023-08-21T03:35:10;101586.64;;;17.47;42.05
73518;BME280;61766;60.318;25.044;2023-08-21T03:37:35;101587.29;;;17.73;42.08
73518;BME280;61766;60.318;25.044;2023-08-21T03:40:02;101586.41;;;17.47;42.03
73518;BME280;61766;60.318;25.044;2023-08-21T03:42:27;101587.44;;;17.28;42.68
73518;BME280;61766;60.318;25.044;2023-08-21T03:44:53;101586.89;;;17.70;41.85
73518;BME280;61766;60.318;25.044;2023-08-21T03:47:19;101583.82;;;17.76;42.21
73518;BME280;61766;60.318;25.044;2023-08-21T03:49:44;101579.89;;;17.90;41.99
73518;BME280;61766;60.318;25.044;2023-08-21T03:52:10;101576.92;;;17.87;41.79
73518;BME280;61766;60.318;25.044;2023-08-21T03:54:36;101573.96;;;17.94;41.56
73518;BME280;61766;60.318;25.044;2023-08-21T03:57:02;101574.39;;;18.05;41.07
73518;BME280;61766;60.318;25.044;2023-08-21T03:59:27;101574.05;;;17.86;41.62
73518;BME280;61766;60.318;25.044;2023-08-21T04:01:53;101573.20;;;17.99;41.63
73518;BME280;61766;60.318;25.044;2023-08-21T04:04:19;101570.83;;;18.10;41.29
73518;BME280;61766;60.318;25.044;2023-08-21T04:06:45;101565.11;;;17.93;41.46
73518;BME280;61766;60.318;25.044;2023-08-21T04:09:11;101561.86;;;17.75;41.70
73518;BME280;61766;60.318;25.044;2023-08-21T04:11:37;101557.98;;;17.84;41.73
73518;BME280;61766;60.318;25.044;2023-08-21T04:14:02;101553.99;;;18.12;41.74
73518;BME280;61766;60.318;25.044;2023-08-21T04:16:28;101550.42;;;17.90;41.88
73518;BME280;61766;60.318;25.044;2023-08-21T04:18:54;101549.74;;;18.23;41.56
73518;BME280;61766;60.318;25.044;2023-08-21T04:21:20;101545.68;;;17.89;41.62
73518;BME280;61766;60.318;25.044;2023-08-21T04:23:47;101546.19;;;17.67;42.21
73518;BME280;61766;60.318;25.044;2023-08-21T04:26:11;101541.17;;;17.73;41.89
73518;BME280;61766;60.318;25.044;2023-08-21T04:28:37;101539.74;;;18.24;41.25
73518;BME280;61766;60.318;25.044;2023-08-21T04:31:04;101537.76;;;17.89;41.36
73518;BME280;61766;60.318;25.044;2023-08-21T04:33:29;101536.36;;;17.75;41.78
73518;BME280;61766;60.318;25.044;2023-08-21T04:35:54;101535.03;;;17.88;42.21
73518;BME280;61766;60.318;25.044;2023-08-21T04:38:20;101532.52;;;18.02;42.22
73518;BME280;61766;60.318;25.044;2023-08-21T04:40:46;101533.43;;;18.02;42.44
73518;BME280;61766;60.318;25.044;2023-08-21T04:43:12;101531.76;;;17.84;42.37
73518;BME280;61766;60.318;25.044;2023-08-21T04:45:38;101530.69;;;17.90;42.30
73518;BME280;61766;60.318;25.044;2023-08-21T04:48:04;101526.81;;;18.04;42.01
73518;BME280;61766;60.318;25.044;2023-08-21T04:50:29;101528.06;;;17.97;41.89
73518;BME280;61766;60.318;25.044;2023-08-21T04:52:55;101523.87;;;18.27;41.96
73518;BME280;61766;60.318;25.044;2023-08-21T04:55:21;101524.41;;;18.30;41.84
73518;BME280;61766;60.318;25.044;2023-08-21T04:57:46;101524.98;;;18.01;41.95
73518;BME280;61766;60.318;25.044;2023-08-21T05:00:13;101524.93;;;18.46;41.98
73518;BME280;61766;60.318;25.044;2023-08-21T05:02:38;101519.09;;;18.02;41.81
73518;BME280;61766;60.318;25.044;2023-08-21T05:05:04;101516.32;;;18.43;41.86
73518;BME280;61766;60.318;25.044;2023-08-21T05:07:30;101510.85;;;18.43;41.42
73518;BME280;61766;60.318;25.044;2023-08-21T05:09:58;101510.09;;;18.59;41.19
73518;BME280;61766;60.318;25.044;2023-08-21T05:12:21;101507.52;;;18.56;41.23
73518;BME280;61766;60.318;25.044;2023-08-21T05:14:47;101506.60;;;18.52;41.48
73518;BME280;61766;60.318;25.044;2023-08-21T05:17:13;101505.96;;;18.82;41.49
73518;BME280;61766;60.318;25.044;2023-08-21T05:19:39;101507.84;;;18.70;41.35
73518;BME280;61766;60.318;25.044;2023-08-21T05:22:04;101508.51;;;18.46;41.45
73518;BME280;61766;60.318;25.044;2023-08-21T05:24:30;101509.90;;;18.64;41.47
73518;BME280;61766;60.318;25.044;2023-08-21T05:26:56;101507.89;;;18.74;41.59
73518;BME280;61766;60.318;25.044;2023-08-21T05:29:22;101506.30;;;19.14;41.33
73518;BME280;61766;60.318;25.044;2023-08-21T05:31:48;101504.14;;;18.80;41.38
73518;BME280;61766;60.318;25.044;2023-08-21T05:34:13;101502.34;;;18.74;41.65
73518;BME280;61766;60.318;25.044;2023-08-21T05:36:39;101501.35;;;18.94;41.97
73518;BME280;61766;60.318;25.044;2023-08-21T05:39:05;101499.19;;;18.95;41.57
73518;BME280;61766;60.318;25.044;2023-08-21T05:41:30;101495.63;;;18.96;40.87
73518;BME280;61766;60.318;25.044;2023-08-21T05:43:56;101496.92;;;19.02;41.64
73518;BME280;61766;60.318;25.044;2023-08-21T05:46:22;101493.77;;;18.98;41.85
73518;BME280;61766;60.318;25.044;2023-08-21T05:48:47;101489.55;;;18.95;42.38
73518;BME280;61766;60.318;25.044;2023-08-21T05:51:13;101488.75;;;19.20;42.23
73518;BME280;61766;60.318;25.044;2023-08-21T05:53:39;101490.56;;;19.03;42.47
73518;BME280;61766;60.318;25.044;2023-08-21T05:56:05;101490.96;;;19.10;42.25
73518;BME280;61766;60.318;25.044;2023-08-21T05:58:30;101490.38;;;19.22;41.78
73518;BME280;61766;60.318;25.044;2023-08-21T06:00:56;101489.76;;;19.33;41.96
73518;BME280;61766;60.318;25.044;2023-08-21T06:03:22;101488.43;;;19.51;41.73
73518;BME280;61766;60.318;25.044;2023-08-21T06:05:48;101486.53;;;19.34;41.70
73518;BME280;61766;60.318;25.044;2023-08-21T06:08:13;101488.05;;;19.49;41.64
73518;BME280;61766;60.318;25.044;2023-08-21T06:10:39;101486.17;;;19.78;41.55
73518;BME280;61766;60.318;25.044;2023-08-21T06:13:05;101486.07;;;19.91;41.65
73518;BME280;61766;60.318;25.044;2023-08-21T06:15:31;101484.34;;;19.75;41.56
73518;BME280;61766;60.318;25.044;2023-08-21T06:17:57;101483.36;;;20.13;41.53
73518;BME280;61766;60.318;25.044;2023-08-21T06:20:22;101483.54;;;19.99;40.80
73518;BME280;61766;60.318;25.044;2023-08-21T06:22:48;101485.62;;;19.31;41.64
73518;BME280;61766;60.318;25.044;2023-08-21T06:25:13;101486.14;;;19.78;41.52
73518;BME280;61766;60.318;25.044;2023-08-21T06:27:39;101485.11;;;19.68;41.61
73518;BME280;61766;60.318;25.044;2023-08-21T06:30:06;101487.43;;;20.05;41.42
73518;BME280;61766;60.318;25.044;2023-08-21T06:32:31;101480.70;;;19.87;41.19
73518;BME280;61766;60.318;25.044;2023-08-21T06:34:56;101478.16;;;19.89;41.59
73518;BME280;61766;60.318;25.044;2023-08-21T06:37:22;101475.98;;;20.33;41.41
73518;BME280;61766;60.318;25.044;2023-08-21T06:39:48;101475.26;;;20.24;41.54
73518;BME280;61766;60.318;25.044;2023-08-21T06:42:14;101472.44;;;20.14;41.63
73518;BME280;61766;60.318;25.044;2023-08-21T06:44:40;101471.85;;;20.20;41.49
73518;BME280;61766;60.318;25.044;2023-08-21T06:47:05;101471.48;;;20.23;41.49
73518;BME280;61766;60.318;25.044;2023-08-21T06:49:31;101469.69;;;20.33;41.29
73518;BME280;61766;60.318;25.044;2023-08-21T06:51:57;101473.10;;;20.41;41.10
73518;BME280;61766;60.318;25.044;2023-08-21T06:54:22;101470.62;;;20.54;41.18
73518;BME280;61766;60.318;25.044;2023-08-21T06:56:48;101470.13;;;20.61;41.00
73518;BME280;61766;60.318;25.044;2023-08-21T06:59:14;101469.76;;;20.59;41.07
73518;BME280;61766;60.318;25.044;2023-08-21T07:01:40;101467.07;;;20.59;41.27
73518;BME280;61766;60.318;25.044;2023-08-21T07:04:05;101465.45;;;20.74;41.04
73518;BME280;61766;60.318;25.044;2023-08-21T07:06:31;101470.21;;;20.77;41.06
73518;BME280;61766;60.318;25.044;2023-08-21T07:08:57;101464.72;;;20.84;40.78
73518;BME280;61766;60.318;25.044;2023-08-21T07:11:22;101464.49;;;20.86;41.17
73518;BME280;61766;60.318;25.044;2023-08-21T07:13:48;101462.85;;;21.03;40.91
73518;BME280;61766;60.318;25.044;2023-08-21T07:16:14;101459.56;;;20.67;40.76
73518;BME280;61766;60.318;25.044;2023-08-21T07:18:39;101454.12;;;21.18;41.30
73518;BME280;61766;60.318;25.044;2023-08-21T07:21:05;101452.32;;;21.22;41.36
73518;BME280;61766;60.318;25.044;2023-08-21T07:23:31;101451.13;;;20.68;41.15
73518;BME280;61766;60.318;25.044;2023-08-21T07:25:56;101453.57;;;20.85;41.01
73518;BME280;61766;60.318;25.044;2023-08-21T07:28:21;101451.97;;;20.96;40.68
73518;BME280;61766;60.318;25.044;2023-08-21T07:30:47;101450.97;;;21.18;40.47
73518;BME280;61766;60.318;25.044;2023-08-21T07:33:13;101448.87;;;20.78;41.21
73518;BME280;61766;60.318;25.044;2023-08-21T07:35:38;101448.50;;;21.29;41.13
73518;BME280;61766;60.318;25.044;2023-08-21T07:38:04;101444.99;;;21.05;41.31
73518;BME280;61766;60.318;25.044;2023-08-21T07:40:30;101443.23;;;21.25;41.52
73518;BME280;61766;60.318;25.044;2023-08-21T07:42:56;101440.75;;;21.14;41.35
73518;BME280;61766;60.318;25.044;2023-08-21T07:45:21;101438.60;;;21.24;41.18
73518;BME280;61766;60.318;25.044;2023-08-21T07:47:47;101437.46;;;21.36;41.02
73518;BME280;61766;60.318;25.044;2023-08-21T07:50:13;101433.86;;;21.43;41.18
73518;BME280;61766;60.318;25.044;2023-08-21T07:52:39;101431.76;;;21.61;40.87
73518;BME280;61766;60.318;25.044;2023-08-21T07:55:05;101430.30;;;21.69;41.28
73518;BME280;61766;60.318;25.044;2023-08-21T07:57:30;101428.48;;;21.70;41.08
73518;BME280;61766;60.318;25.044;2023-08-21T07:59:56;101428.33;;;21.53;41.04
73518;BME280;61766;60.318;25.044;2023-08-21T08:02:22;101426.42;;;21.71;41.23
73518;BME280;61766;60.318;25.044;2023-08-21T08:04:47;101428.15;;;21.51;41.55
73518;BME280;61766;60.318;25.044;2023-08-21T08:07:13;101428.75;;;21.51;41.78
73518;BME280;61766;60.318;25.044;2023-08-21T08:09:38;101429.20;;;21.56;42.14
73518;BME280;61766;60.318;25.044;2023-08-21T08:12:04;101426.58;;;21.50;41.48
73518;BME280;61766;60.318;25.044;2023-08-21T08:14:30;101424.07;;;21.64;41.64
73518;BME280;61766;60.318;25.044;2023-08-21T08:16:55;101422.38;;;21.66;41.92
73518;BME280;61766;60.318;25.044;2023-08-21T08:19:21;101423.28;;;21.85;43.20
73518;BME280;61766;60.318;25.044;2023-08-21T08:21:47;101419.84;;;22.08;42.96
73518;BME280;61766;60.318;25.044;2023-08-21T08:24:13;101418.18;;;22.13;43.29
73518;BME280;61766;60.318;25.044;2023-08-21T08:26:38;101416.76;;;22.41;43.19
73518;BME280;61766;60.318;25.044;2023-08-21T08:29:04;101412.96;;;22.36;43.27
73518;BME280;61766;60.318;25.044;2023-08-21T08:31:30;101413.64;;;22.08;42.47
73518;BME280;61766;60.318;25.044;2023-08-21T08:33:55;101411.44;;;22.39;42.17
73518;BME280;61766;60.318;25.044;2023-08-21T08:36:21;101412.13;;;22.54;41.86
73518;BME280;61766;60.318;25.044;2023-08-21T08:38:47;101414.68;;;22.81;42.74
73518;BME280;61766;60.318;25.044;2023-08-21T08:41:17;101414.17;;;22.90;41.72
73518;BME280;61766;60.318;25.044;2023-08-21T08:43:39;101412.34;;;22.97;42.03
73518;BME280;61766;60.318;25.044;2023-08-21T08:46:05;101407.56;;;22.91;42.03
73518;BME280;61766;60.318;25.044;2023-08-21T08:48:29;101405.38;;;23.06;41.91
73518;BME280;61766;60.318;25.044;2023-08-21T08:50:55;101400.26;;;23.31;41.87
73518;BME280;61766;60.318;25.044;2023-08-21T08:53:21;101397.41;;;24.13;40.36
73518;BME280;61766;60.318;25.044;2023-08-21T08:55:46;101396.20;;;23.90;39.98
73518;BME280;61766;60.318;25.044;2023-08-21T08:58:12;101394.22;;;24.28;38.69
73518;BME280;61766;60.318;25.044;2023-08-21T09:00:37;101394.97;;;23.74;39.18
73518;BME280;61766;60.318;25.044;2023-08-21T09:03:03;101390.06;;;24.12;38.81
73518;BME280;61766;60.318;25.044;2023-08-21T09:05:28;101389.87;;;23.97;38.95
73518;BME280;61766;60.318;25.044;2023-08-21T09:08:02;101391.88;;;23.92;38.79
73518;BME280;61766;60.318;25.044;2023-08-21T09:10:20;101386.70;;;23.70;39.13
73518;BME280;61766;60.318;25.044;2023-08-21T09:12:48;101381.57;;;23.25;40.48
73518;BME280;61766;60.318;25.044;2023-08-21T09:15:11;101379.61;;;23.73;39.61
73518;BME280;61766;60.318;25.044;2023-08-21T09:17:37;101372.71;;;24.05;38.99
73518;BME280;61766;60.318;25.044;2023-08-21T09:20:07;101370.40;;;23.77;38.55
73518;BME280;61766;60.318;25.044;2023-08-21T09:22:28;101369.60;;;24.54;39.15
73518;BME280;61766;60.318;25.044;2023-08-21T09:25:00;101364.81;;;24.83;37.03
73518;BME280;61766;60.318;25.044;2023-08-21T09:27:20;101364.44;;;25.02;37.41
73518;BME280;61766;60.318;25.044;2023-08-21T09:29:45;101367.25;;;25.44;37.06
73518;BME280;61766;60.318;25.044;2023-08-21T09:32:11;101362.24;;;25.03;36.19
73518;BME280;61766;60.318;25.044;2023-08-21T09:34:38;101362.81;;;25.18;35.95
73518;BME280;61766;60.318;25.044;2023-08-21T09:37:04;101360.17;;;25.49;36.10
73518;BME280;61766;60.318;25.044;2023-08-21T09:39:32;101356.49;;;24.35;37.09
73518;BME280;61766;60.318;25.044;2023-08-21T09:41:58;101352.69;;;23.76;39.08
73518;BME280;61766;60.318;25.044;2023-08-21T09:44:19;101347.96;;;24.41;37.85
73518;BME280;61766;60.318;25.044;2023-08-21T09:46:47;101343.91;;;24.92;37.97
73518;BME280;61766;60.318;25.044;2023-08-21T09:49:10;101348.28;;;24.75;37.01
73518;BME280;61766;60.318;25.044;2023-08-21T09:51:36;101346.31;;;24.94;36.98
73518;BME280;61766;60.318;25.044;2023-08-21T09:54:02;101345.41;;;24.89;37.26
73518;BME280;61766;60.318;25.044;2023-08-21T09:56:27;101340.16;;;25.65;35.58
73518;BME280;61766;60.318;25.044;2023-08-21T09:58:54;101336.15;;;25.68;35.51
73518;BME280;61766;60.318;25.044;2023-08-21T10:01:20;101333.98;;;25.86;34.40
73518;BME280;61766;60.318;25.044;2023-08-21T10:03:45;101327.26;;;25.08;35.33
73518;BME280;61766;60.318;25.044;2023-08-21T10:06:11;101325.05;;;23.98;36.45
73518;BME280;61766;60.318;25.044;2023-08-21T10:08:39;101324.91;;;24.22;37.53
73518;BME280;61766;60.318;25.044;2023-08-21T10:11:02;101324.39;;;25.39;34.80
73518;BME280;61766;60.318;25.044;2023-08-21T10:13:27;101324.88;;;25.21;34.66
73518;BME280;61766;60.318;25.044;2023-08-21T10:15:52;101319.52;;;24.67;35.01
73518;BME280;61766;60.318;25.044;2023-08-21T10:18:22;101320.82;;;25.14;35.33
73518;BME280;61766;60.318;25.044;2023-08-21T10:20:43;101318.85;;;23.92;37.00
73518;BME280;61766;60.318;25.044;2023-08-21T10:23:09;101315.44;;;24.00;36.73
73518;BME280;61766;60.318;25.044;2023-08-21T10:25:35;101314.88;;;24.11;37.35
73518;BME280;61766;60.318;25.044;2023-08-21T10:28:00;101313.15;;;24.94;36.00
73518;BME280;61766;60.318;25.044;2023-08-21T10:30:26;101313.94;;;25.09;36.12
73518;BME280;61766;60.318;25.044;2023-08-21T10:32:52;101312.30;;;25.13;35.44
73518;BME280;61766;60.318;25.044;2023-08-21T10:35:19;101314.65;;;23.91;36.89
73518;BME280;61766;60.318;25.044;2023-08-21T10:40:08;101310.18;;;23.56;38.21
73518;BME280;61766;60.318;25.044;2023-08-21T10:42:41;101305.81;;;23.57;38.85
73518;BME280;61766;60.318;25.044;2023-08-21T10:45:05;101302.80;;;24.49;37.25
73518;BME280;61766;60.318;25.044;2023-08-21T10:47:30;101299.14;;;24.20;37.28
73518;BME280;61766;60.318;25.044;2023-08-21T10:49:51;101298.37;;;24.53;36.94
73518;BME280;61766;60.318;25.044;2023-08-21T10:52:19;101298.93;;;23.90;37.48
73518;BME280;61766;60.318;25.044;2023-08-21T10:54:50;101300.65;;;23.57;38.37
73518;BME280;61766;60.318;25.044;2023-08-21T10:57:07;101301.48;;;23.42;38.94
73518;BME280;61766;60.318;25.044;2023-08-21T10:59:33;101294.78;;;23.92;38.98
73518;BME280;61766;60.318;25.044;2023-08-21T11:01:58;101296.64;;;23.46;39.55
73518;BME280;61766;60.318;25.044;2023-08-21T11:04:24;101287.97;;;23.80;39.16
73518;BME280;61766;60.318;25.044;2023-08-21T11:06:54;101290.55;;;23.13;39.80
73518;BME280;61766;60.318;25.044;2023-08-21T11:09:16;101287.28;;;23.87;38.50
73518;BME280;61766;60.318;25.044;2023-08-21T11:11:40;101290.85;;;23.08;40.25
73518;BME280;61766;60.318;25.044;2023-08-21T11:14:06;101285.90;;;23.48;39.89
73518;BME280;61766;60.318;25.044;2023-08-21T11:16:32;101281.63;;;23.23;39.56
73518;BME280;61766;60.318;25.044;2023-08-21T11:18:58;101277.74;;;23.61;39.46
73518;BME280;61766;60.318;25.044;2023-08-21T11:21:26;101282.00;;;22.81;40.57
73518;BME280;61766;60.318;25.044;2023-08-21T11:23:48;101278.56;;;21.70;42.55
73518;BME280;61766;60.318;25.044;2023-08-21T11:26:14;101277.34;;;22.53;41.66
73518;BME280;61766;60.318;25.044;2023-08-21T11:28:40;101271.55;;;23.34;40.22
73518;BME280;61766;60.318;25.044;2023-08-21T11:31:05;101271.46;;;23.89;39.89
73518;BME280;61766;60.318;25.044;2023-08-21T11:33:32;101269.22;;;23.81;39.83
73518;BME280;61766;60.318;25.044;2023-08-21T11:35:57;101262.89;;;24.32;38.68
73518;BME280;61766;60.318;25.044;2023-08-21T11:38:23;101260.12;;;24.30;38.02
73518;BME280;61766;60.318;25.044;2023-08-21T11:40:53;101261.58;;;24.13;38.49
73518;BME280;61766;60.318;25.044;2023-08-21T11:43:14;101259.59;;;24.64;37.80
73518;BME280;61766;60.318;25.044;2023-08-21T11:45:39;101260.13;;;24.22;37.51
73518;BME280;61766;60.318;25.044;2023-08-21T11:48:05;101255.62;;;24.60;36.88
73518;BME280;61766;60.318;25.044;2023-08-21T11:50:30;101255.11;;;25.05;36.35
73518;BME280;61766;60.318;25.044;2023-08-21T11:52:56;101251.12;;;24.78;37.02
73518;BME280;61766;60.318;25.044;2023-08-21T11:55:22;101249.09;;;24.74;37.34
73518;BME280;61766;60.318;25.044;2023-08-21T11:57:51;101248.56;;;24.05;37.69
73518;BME280;61766;60.318;25.044;2023-08-21T12:00:13;101246.65;;;23.99;38.13
73518;BME280;61766;60.318;25.044;2023-08-21T12:02:38;101245.55;;;24.43;38.09
73518;BME280;61766;60.318;25.044;2023-08-21T12:05:05;101240.10;;;24.11;38.07
73518;BME280;61766;60.318;25.044;2023-08-21T12:07:30;101244.15;;;24.16;37.57
73518;BME280;61766;60.318;25.044;2023-08-21T12:09:55;101240.87;;;24.11;37.46
73518;BME280;61766;60.318;25.044;2023-08-21T12:12:21;101238.83;;;24.92;36.27
73518;BME280;61766;60.318;25.044;2023-08-21T12:14:47;101239.22;;;24.82;36.46
73518;BME280;61766;60.318;25.044;2023-08-21T12:17:12;101235.50;;;24.69;36.89
73518;BME280;61766;60.318;25.044;2023-08-21T12:19:38;101236.32;;;24.18;38.19
73518;BME280;61766;60.318;25.044;2023-08-21T12:22:04;101234.94;;;24.11;37.86
73518;BME280;61766;60.318;25.044;2023-08-21T12:24:29;101232.54;;;24.84;37.33
73518;BME280;61766;60.318;25.044;2023-08-21T12:26:55;101231.69;;;25.02;37.20
73518;BME280;61766;60.318;25.044;2023-08-21T12:29:21;101230.31;;;24.29;37.41
73518;BME280;61766;60.318;25.044;2023-08-21T12:31:46;101226.16;;;24.19;37.71
73518;BME280;61766;60.318;25.044;2023-08-21T12:34:12;101221.91;;;25.06;37.04